Etusivu
METAR-TAF:

METAR-TAF

Lentoasemat :

Joliet Regional Airport

Joliet, Illinois, Yhdysvallat

Leveyspiiri: 41-31-05N, Pituuspiiri: 088-10-31W, korkeus merenpinnasta: 177 m

Tämänhetkinen sää

Tämä raportti tehtiin 25 minuuttia sitten, kello 17.55 UTC
Tuuli 13 kn etelästä puuskistuen 20 kn:hen
Lämpötila 18°C
Kosteus 94%
Ilmanpaine 997 hPa
Näkyvyys: 16.1 km
Hajonneita pilviä 1800 ft:n korkeudessa
Pilvistä 2400 ft:n korkeudessa

METAR: KJOT 211755Z AUTO 17013G20KT 10SM BKN018 OVC024 18/17 A2945 RMK AO2 60005 T01760173 10177 20147

Aika: 13:20 (18:20 UTC)


TAF: puuttuu

Säähavainnot ja -ennusteet yli 4000 lentoasemalta (METAR- ja TAF-raportit).

Käytössä olevat sääasemat on merkitty karttaan keltaisilla ja punaisilla pisteillä.

Aseta hiiri pisteen päälle nähdäksesi sääaseman nimen.

Klikkaa sitten nähdäksesi säähavainnot ja -ennusteet.

Kartan vaihtaminen: klikkaa mustalla rastilla varustettuja vihreitä pisteitä, niin voit zoomata sisään; viivalla varustettua vihreää pistettä, niin voit zoomata ulos tai vihreitä nuolia, niin pääset viereisille kartoille.


METAR-TAF: